sensor_id;sensor_type;location;lat;lon;timestamp;temperature;humidity
30678;DHT22;73746;47.466;8.992;2024-03-07T00:00:51;3.80;99.90
30678;DHT22;73746;47.466;8.992;2024-03-07T00:03:25;3.80;99.90
30678;DHT22;73746;47.466;8.992;2024-03-07T00:05:57;3.90;99.90
30678;DHT22;73746;47.466;8.992;2024-03-07T00:08:28;3.90;99.90
30678;DHT22;73746;47.466;8.992;2024-03-07T00:11:01;3.90;99.90
30678;DHT22;73746;47.466;8.992;2024-03-07T00:13:33;3.90;99.90
30678;DHT22;73746;47.466;8.992;2024-03-07T00:16:05;3.90;99.90
30678;DHT22;73746;47.466;8.992;2024-03-07T00:18:37;3.80;99.90
30678;DHT22;73746;47.466;8.992;2024-03-07T00:21:09;3.80;99.90
30678;DHT22;73746;47.466;8.992;2024-03-07T00:23:41;3.80;99.90
30678;DHT22;73746;47.466;8.992;2024-03-07T00:26:14;3.80;99.90
30678;DHT22;73746;47.466;8.992;2024-03-07T00:28:47;3.80;99.90
30678;DHT22;73746;47.466;8.992;2024-03-07T00:31:18;3.90;99.90
30678;DHT22;73746;47.466;8.992;2024-03-07T00:33:50;3.90;99.90
30678;DHT22;73746;47.466;8.992;2024-03-07T00:36:23;3.90;99.90
30678;DHT22;73746;47.466;8.992;2024-03-07T00:38:56;3.90;99.90
30678;DHT22;73746;47.466;8.992;2024-03-07T00:41:28;4.00;99.90
30678;DHT22;73746;47.466;8.992;2024-03-07T00:44:01;3.90;99.90
30678;DHT22;73746;47.466;8.992;2024-03-07T00:46:33;3.90;99.90
30678;DHT22;73746;47.466;8.992;2024-03-07T00:49:05;3.90;99.90
30678;DHT22;73746;47.466;8.992;2024-03-07T00:51:37;3.90;99.90
30678;DHT22;73746;47.466;8.992;2024-03-07T00:54:10;4.00;99.90
30678;DHT22;73746;47.466;8.992;2024-03-07T00:56:43;4.00;99.90
30678;DHT22;73746;47.466;8.992;2024-03-07T00:59:15;4.00;99.90
30678;DHT22;73746;47.466;8.992;2024-03-07T01:01:46;4.00;99.90
30678;DHT22;73746;47.466;8.992;2024-03-07T01:04:19;4.00;99.90
30678;DHT22;73746;47.466;8.992;2024-03-07T01:06:51;4.00;99.90
30678;DHT22;73746;47.466;8.992;2024-03-07T01:09:23;4.10;99.90
30678;DHT22;73746;47.466;8.992;2024-03-07T01:11:55;4.10;99.90
30678;DHT22;73746;47.466;8.992;2024-03-07T01:14:27;4.10;99.90
30678;DHT22;73746;47.466;8.992;2024-03-07T01:16:59;4.20;99.90
30678;DHT22;73746;47.466;8.992;2024-03-07T01:19:31;4.20;99.90
30678;DHT22;73746;47.466;8.992;2024-03-07T01:22:03;4.20;99.90
30678;DHT22;73746;47.466;8.992;2024-03-07T01:24:36;4.20;99.90
30678;DHT22;73746;47.466;8.992;2024-03-07T01:27:08;4.10;99.90
30678;DHT22;73746;47.466;8.992;2024-03-07T01:29:39;4.10;99.90
30678;DHT22;73746;47.466;8.992;2024-03-07T01:32:12;4.10;99.90
30678;DHT22;73746;47.466;8.992;2024-03-07T01:34:43;4.00;99.90
30678;DHT22;73746;47.466;8.992;2024-03-07T01:37:15;4.10;99.90
30678;DHT22;73746;47.466;8.992;2024-03-07T01:39:47;4.10;99.90
30678;DHT22;73746;47.466;8.992;2024-03-07T01:42:19;4.10;99.90
30678;DHT22;73746;47.466;8.992;2024-03-07T01:44:50;4.10;99.90
30678;DHT22;73746;47.466;8.992;2024-03-07T01:47:23;4.10;99.90
30678;DHT22;73746;47.466;8.992;2024-03-07T01:49:55;4.10;99.90
30678;DHT22;73746;47.466;8.992;2024-03-07T01:52:26;4.10;99.90
30678;DHT22;73746;47.466;8.992;2024-03-07T01:54:58;4.10;99.90
30678;DHT22;73746;47.466;8.992;2024-03-07T01:57:30;4.00;99.90
30678;DHT22;73746;47.466;8.992;2024-03-07T02:00:04;3.90;99.90
30678;DHT22;73746;47.466;8.992;2024-03-07T02:02:36;3.90;99.90
30678;DHT22;73746;47.466;8.992;2024-03-07T02:07:51;3.90;99.90
30678;DHT22;73746;47.466;8.992;2024-03-07T02:10:23;3.80;99.90
30678;DHT22;73746;47.466;8.992;2024-03-07T02:12:55;3.90;99.90
30678;DHT22;73746;47.466;8.992;2024-03-07T02:15:27;3.80;99.90
30678;DHT22;73746;47.466;8.992;2024-03-07T02:17:58;3.90;99.90
30678;DHT22;73746;47.466;8.992;2024-03-07T02:20:31;3.90;99.90
30678;DHT22;73746;47.466;8.992;2024-03-07T02:23:03;3.90;99.90
30678;DHT22;73746;47.466;8.992;2024-03-07T02:25:35;3.80;99.90
30678;DHT22;73746;47.466;8.992;2024-03-07T02:28:08;3.80;99.90
30678;DHT22;73746;47.466;8.992;2024-03-07T02:30:40;3.70;99.90
30678;DHT22;73746;47.466;8.992;2024-03-07T02:33:11;3.70;99.90
30678;DHT22;73746;47.466;8.992;2024-03-07T02:35:43;3.70;99.90
30678;DHT22;73746;47.466;8.992;2024-03-07T02:38:15;3.70;99.90
30678;DHT22;73746;47.466;8.992;2024-03-07T02:40:48;3.70;99.90
30678;DHT22;73746;47.466;8.992;2024-03-07T02:43:20;3.70;99.90
30678;DHT22;73746;47.466;8.992;2024-03-07T02:45:52;3.70;99.90
30678;DHT22;73746;47.466;8.992;2024-03-07T02:48:25;3.80;99.90
30678;DHT22;73746;47.466;8.992;2024-03-07T02:50:57;3.80;99.90
30678;DHT22;73746;47.466;8.992;2024-03-07T02:53:29;3.90;99.90
30678;DHT22;73746;47.466;8.992;2024-03-07T02:56:00;3.80;99.90
30678;DHT22;73746;47.466;8.992;2024-03-07T02:58:32;3.90;99.90
30678;DHT22;73746;47.466;8.992;2024-03-07T03:01:04;3.90;99.90
30678;DHT22;73746;47.466;8.992;2024-03-07T03:03:36;3.90;99.90
30678;DHT22;73746;47.466;8.992;2024-03-07T03:06:08;3.90;99.90
30678;DHT22;73746;47.466;8.992;2024-03-07T03:08:40;3.90;99.90
30678;DHT22;73746;47.466;8.992;2024-03-07T03:11:12;3.90;99.90
30678;DHT22;73746;47.466;8.992;2024-03-07T03:13:44;3.80;99.90
30678;DHT22;73746;47.466;8.992;2024-03-07T03:16:17;3.80;99.90
30678;DHT22;73746;47.466;8.992;2024-03-07T03:18:50;3.80;99.90
30678;DHT22;73746;47.466;8.992;2024-03-07T03:21:22;3.80;99.90
30678;DHT22;73746;47.466;8.992;2024-03-07T03:23:54;3.80;99.90
30678;DHT22;73746;47.466;8.992;2024-03-07T03:26:26;3.80;99.90
30678;DHT22;73746;47.466;8.992;2024-03-07T03:28:58;3.80;99.90
30678;DHT22;73746;47.466;8.992;2024-03-07T03:31:29;3.80;99.90
30678;DHT22;73746;47.466;8.992;2024-03-07T03:34:01;3.80;99.90
30678;DHT22;73746;47.466;8.992;2024-03-07T03:36:33;3.80;99.90
30678;DHT22;73746;47.466;8.992;2024-03-07T03:39:05;3.80;99.90
30678;DHT22;73746;47.466;8.992;2024-03-07T03:41:37;3.80;99.90
30678;DHT22;73746;47.466;8.992;2024-03-07T03:44:09;3.80;99.90
30678;DHT22;73746;47.466;8.992;2024-03-07T03:46:42;3.80;99.90
30678;DHT22;73746;47.466;8.992;2024-03-07T03:49:14;3.80;99.90
30678;DHT22;73746;47.466;8.992;2024-03-07T03:51:46;3.80;99.90
30678;DHT22;73746;47.466;8.992;2024-03-07T03:54:18;3.80;99.90
30678;DHT22;73746;47.466;8.992;2024-03-07T03:56:50;3.80;99.90
30678;DHT22;73746;47.466;8.992;2024-03-07T03:59:22;3.70;99.90
30678;DHT22;73746;47.466;8.992;2024-03-07T04:01:54;3.70;99.90
30678;DHT22;73746;47.466;8.992;2024-03-07T04:04:26;3.70;99.90
30678;DHT22;73746;47.466;8.992;2024-03-07T04:06:58;3.70;99.90
30678;DHT22;73746;47.466;8.992;2024-03-07T04:09:30;3.70;99.90
30678;DHT22;73746;47.466;8.992;2024-03-07T04:12:02;3.70;99.90
30678;DHT22;73746;47.466;8.992;2024-03-07T04:14:33;3.70;99.90
30678;DHT22;73746;47.466;8.992;2024-03-07T04:17:06;3.70;99.90
30678;DHT22;73746;47.466;8.992;2024-03-07T04:19:38;3.70;99.90
30678;DHT22;73746;47.466;8.992;2024-03-07T04:22:10;3.70;99.90
30678;DHT22;73746;47.466;8.992;2024-03-07T04:24:42;3.70;99.90
30678;DHT22;73746;47.466;8.992;2024-03-07T04:27:14;3.60;99.90
30678;DHT22;73746;47.466;8.992;2024-03-07T04:29:46;3.60;99.90
30678;DHT22;73746;47.466;8.992;2024-03-07T04:32:19;3.60;99.90
30678;DHT22;73746;47.466;8.992;2024-03-07T04:34:51;3.60;99.90
30678;DHT22;73746;47.466;8.992;2024-03-07T04:37:23;3.60;99.90
30678;DHT22;73746;47.466;8.992;2024-03-07T04:39:55;3.60;99.90
30678;DHT22;73746;47.466;8.992;2024-03-07T04:42:26;3.60;99.90
30678;DHT22;73746;47.466;8.992;2024-03-07T04:44:58;3.70;99.90
30678;DHT22;73746;47.466;8.992;2024-03-07T04:47:31;3.70;99.90
30678;DHT22;73746;47.466;8.992;2024-03-07T04:50:08;3.60;99.90
30678;DHT22;73746;47.466;8.992;2024-03-07T04:52:41;3.60;99.90
30678;DHT22;73746;47.466;8.992;2024-03-07T04:55:13;3.60;99.90
30678;DHT22;73746;47.466;8.992;2024-03-07T04:57:45;3.60;99.90
30678;DHT22;73746;47.466;8.992;2024-03-07T05:00:17;3.70;99.90
30678;DHT22;73746;47.466;8.992;2024-03-07T05:02:51;3.70;99.90
30678;DHT22;73746;47.466;8.992;2024-03-07T05:05:23;3.70;99.90
30678;DHT22;73746;47.466;8.992;2024-03-07T05:07:57;3.70;99.90
30678;DHT22;73746;47.466;8.992;2024-03-07T05:13:12;3.70;99.90
30678;DHT22;73746;47.466;8.992;2024-03-07T05:15:44;3.70;99.90
30678;DHT22;73746;47.466;8.992;2024-03-07T05:18:15;3.70;99.90
30678;DHT22;73746;47.466;8.992;2024-03-07T05:20:47;3.70;99.90
30678;DHT22;73746;47.466;8.992;2024-03-07T05:23:20;3.70;99.90
30678;DHT22;73746;47.466;8.992;2024-03-07T05:25:51;3.70;99.90
30678;DHT22;73746;47.466;8.992;2024-03-07T05:28:23;3.70;99.90
30678;DHT22;73746;47.466;8.992;2024-03-07T05:30:56;3.70;99.90
30678;DHT22;73746;47.466;8.992;2024-03-07T05:33:28;3.70;99.90
30678;DHT22;73746;47.466;8.992;2024-03-07T05:36:00;3.70;99.90
30678;DHT22;73746;47.466;8.992;2024-03-07T05:38:35;3.60;99.90
30678;DHT22;73746;47.466;8.992;2024-03-07T05:41:07;3.70;99.90
30678;DHT22;73746;47.466;8.992;2024-03-07T05:43:39;3.70;99.90
30678;DHT22;73746;47.466;8.992;2024-03-07T05:46:11;3.70;99.90
30678;DHT22;73746;47.466;8.992;2024-03-07T05:48:43;3.60;99.90
30678;DHT22;73746;47.466;8.992;2024-03-07T05:51:16;3.60;99.90
30678;DHT22;73746;47.466;8.992;2024-03-07T05:53:48;3.60;99.90
30678;DHT22;73746;47.466;8.992;2024-03-07T05:56:20;3.60;99.90
30678;DHT22;73746;47.466;8.992;2024-03-07T05:58:52;3.60;99.90
30678;DHT22;73746;47.466;8.992;2024-03-07T06:14:59;3.70;99.90
30678;DHT22;73746;47.466;8.992;2024-03-07T06:17:31;3.60;99.90
30678;DHT22;73746;47.466;8.992;2024-03-07T06:20:05;3.60;99.90
30678;DHT22;73746;47.466;8.992;2024-03-07T06:22:39;3.70;99.90
30678;DHT22;73746;47.466;8.992;2024-03-07T06:25:11;3.70;99.90
30678;DHT22;73746;47.466;8.992;2024-03-07T06:27:44;3.70;99.90
30678;DHT22;73746;47.466;8.992;2024-03-07T06:30:17;3.70;99.90
30678;DHT22;73746;47.466;8.992;2024-03-07T06:32:49;3.80;99.90
30678;DHT22;73746;47.466;8.992;2024-03-07T06:35:21;3.70;99.90
30678;DHT22;73746;47.466;8.992;2024-03-07T06:37:54;3.70;99.90
30678;DHT22;73746;47.466;8.992;2024-03-07T06:40:25;3.80;99.90
30678;DHT22;73746;47.466;8.992;2024-03-07T06:42:59;3.80;99.90
30678;DHT22;73746;47.466;8.992;2024-03-07T06:45:31;3.80;99.90
30678;DHT22;73746;47.466;8.992;2024-03-07T06:48:05;3.80;99.90
30678;DHT22;73746;47.466;8.992;2024-03-07T06:50:38;3.80;99.90
30678;DHT22;73746;47.466;8.992;2024-03-07T06:53:10;3.70;99.90
30678;DHT22;73746;47.466;8.992;2024-03-07T06:55:42;3.70;99.90
30678;DHT22;73746;47.466;8.992;2024-03-07T06:58:14;3.80;99.90
30678;DHT22;73746;47.466;8.992;2024-03-07T07:00:45;3.80;99.90
30678;DHT22;73746;47.466;8.992;2024-03-07T07:03:17;3.80;99.90
30678;DHT22;73746;47.466;8.992;2024-03-07T07:05:50;3.80;99.90
30678;DHT22;73746;47.466;8.992;2024-03-07T07:08:25;3.80;99.90
30678;DHT22;73746;47.466;8.992;2024-03-07T07:10:58;3.90;99.90
30678;DHT22;73746;47.466;8.992;2024-03-07T07:13:30;4.00;99.90
30678;DHT22;73746;47.466;8.992;2024-03-07T07:18:46;3.90;99.90
30678;DHT22;73746;47.466;8.992;2024-03-07T07:21:18;3.80;99.90
30678;DHT22;73746;47.466;8.992;2024-03-07T07:23:50;3.80;99.90
30678;DHT22;73746;47.466;8.992;2024-03-07T07:26:22;3.90;99.90
30678;DHT22;73746;47.466;8.992;2024-03-07T07:28:53;3.90;99.90
30678;DHT22;73746;47.466;8.992;2024-03-07T07:31:29;3.90;99.90
30678;DHT22;73746;47.466;8.992;2024-03-07T07:34:21;4.00;99.90
30678;DHT22;73746;47.466;8.992;2024-03-07T07:36:52;4.00;99.90
30678;DHT22;73746;47.466;8.992;2024-03-07T07:39:24;4.00;99.90
30678;DHT22;73746;47.466;8.992;2024-03-07T07:41:56;4.10;99.90
30678;DHT22;73746;47.466;8.992;2024-03-07T07:44:27;4.10;99.90
30678;DHT22;73746;47.466;8.992;2024-03-07T07:47:00;4.10;99.90
30678;DHT22;73746;47.466;8.992;2024-03-07T07:49:33;4.10;99.90
30678;DHT22;73746;47.466;8.992;2024-03-07T07:52:06;4.10;99.90
30678;DHT22;73746;47.466;8.992;2024-03-07T07:57:18;4.10;99.90
30678;DHT22;73746;47.466;8.992;2024-03-07T07:59:50;4.20;99.90
30678;DHT22;73746;47.466;8.992;2024-03-07T08:02:21;4.30;99.90
30678;DHT22;73746;47.466;8.992;2024-03-07T08:04:53;4.30;99.90
30678;DHT22;73746;47.466;8.992;2024-03-07T08:07:25;4.30;99.90
30678;DHT22;73746;47.466;8.992;2024-03-07T08:09:57;4.30;99.90
30678;DHT22;73746;47.466;8.992;2024-03-07T08:12:28;4.50;99.90
30678;DHT22;73746;47.466;8.992;2024-03-07T08:15:01;4.60;99.90
30678;DHT22;73746;47.466;8.992;2024-03-07T08:17:33;4.70;99.90
30678;DHT22;73746;47.466;8.992;2024-03-07T08:20:07;4.80;99.90
30678;DHT22;73746;47.466;8.992;2024-03-07T08:22:42;4.90;99.90
30678;DHT22;73746;47.466;8.992;2024-03-07T08:25:14;4.90;99.90
30678;DHT22;73746;47.466;8.992;2024-03-07T08:28:05;5.00;99.90
30678;DHT22;73746;47.466;8.992;2024-03-07T08:30:37;5.00;99.90
30678;DHT22;73746;47.466;8.992;2024-03-07T08:33:08;5.10;99.90
30678;DHT22;73746;47.466;8.992;2024-03-07T08:35:41;5.30;99.90
30678;DHT22;73746;47.466;8.992;2024-03-07T08:38:12;5.30;99.90
30678;DHT22;73746;47.466;8.992;2024-03-07T08:40:44;5.40;99.90
30678;DHT22;73746;47.466;8.992;2024-03-07T08:43:16;5.40;99.90
30678;DHT22;73746;47.466;8.992;2024-03-07T08:45:48;5.60;99.90
30678;DHT22;73746;47.466;8.992;2024-03-07T08:48:20;5.70;99.90
30678;DHT22;73746;47.466;8.992;2024-03-07T08:50:52;5.80;99.90
30678;DHT22;73746;47.466;8.992;2024-03-07T08:53:24;5.90;99.90
30678;DHT22;73746;47.466;8.992;2024-03-07T08:55:56;5.90;99.90
30678;DHT22;73746;47.466;8.992;2024-03-07T08:58:29;5.90;99.90
30678;DHT22;73746;47.466;8.992;2024-03-07T09:01:01;5.90;99.90
30678;DHT22;73746;47.466;8.992;2024-03-07T09:03:34;5.90;99.90
30678;DHT22;73746;47.466;8.992;2024-03-07T09:06:06;5.90;99.90
30678;DHT22;73746;47.466;8.992;2024-03-07T09:08:38;5.70;99.90
30678;DHT22;73746;47.466;8.992;2024-03-07T09:11:11;5.70;99.90
30678;DHT22;73746;47.466;8.992;2024-03-07T09:13:43;5.60;99.90
30678;DHT22;73746;47.466;8.992;2024-03-07T09:16:17;5.60;99.90
30678;DHT22;73746;47.466;8.992;2024-03-07T09:18:48;5.60;99.90
30678;DHT22;73746;47.466;8.992;2024-03-07T09:21:41;5.60;99.90
30678;DHT22;73746;47.466;8.992;2024-03-07T09:24:12;5.70;99.90
30678;DHT22;73746;47.466;8.992;2024-03-07T09:26:45;5.80;99.90
30678;DHT22;73746;47.466;8.992;2024-03-07T09:29:18;5.80;99.90
30678;DHT22;73746;47.466;8.992;2024-03-07T09:31:52;5.80;99.90
30678;DHT22;73746;47.466;8.992;2024-03-07T09:34:24;5.90;99.90
30678;DHT22;73746;47.466;8.992;2024-03-07T09:36:56;5.80;99.90
30678;DHT22;73746;47.466;8.992;2024-03-07T09:39:29;5.90;99.90
30678;DHT22;73746;47.466;8.992;2024-03-07T09:42:02;5.90;99.90
30678;DHT22;73746;47.466;8.992;2024-03-07T09:44:35;5.90;99.90
30678;DHT22;73746;47.466;8.992;2024-03-07T09:47:09;5.90;99.90
30678;DHT22;73746;47.466;8.992;2024-03-07T09:52:25;5.80;99.90
30678;DHT22;73746;47.466;8.992;2024-03-07T09:54:57;5.80;99.90
30678;DHT22;73746;47.466;8.992;2024-03-07T09:57:32;5.80;99.90
30678;DHT22;73746;47.466;8.992;2024-03-07T10:00:08;5.80;99.90
30678;DHT22;73746;47.466;8.992;2024-03-07T10:02:44;5.90;99.90
30678;DHT22;73746;47.466;8.992;2024-03-07T10:05:18;5.90;99.90
30678;DHT22;73746;47.466;8.992;2024-03-07T10:07:51;5.80;99.90
30678;DHT22;73746;47.466;8.992;2024-03-07T10:10:23;5.80;99.90
30678;DHT22;73746;47.466;8.992;2024-03-07T10:12:55;5.90;99.90
30678;DHT22;73746;47.466;8.992;2024-03-07T10:15:29;5.80;99.90
30678;DHT22;73746;47.466;8.992;2024-03-07T10:18:02;5.80;99.90
30678;DHT22;73746;47.466;8.992;2024-03-07T10:20:34;5.70;99.90
30678;DHT22;73746;47.466;8.992;2024-03-07T10:23:07;5.70;99.90
30678;DHT22;73746;47.466;8.992;2024-03-07T10:25:43;5.60;99.90
30678;DHT22;73746;47.466;8.992;2024-03-07T10:28:16;5.70;99.90
30678;DHT22;73746;47.466;8.992;2024-03-07T10:30:48;5.70;99.90
30678;DHT22;73746;47.466;8.992;2024-03-07T10:33:20;5.80;99.90
30678;DHT22;73746;47.466;8.992;2024-03-07T10:35:54;5.80;99.90
30678;DHT22;73746;47.466;8.992;2024-03-07T10:38:26;5.70;99.90
30678;DHT22;73746;47.466;8.992;2024-03-07T10:40:59;5.70;99.90
30678;DHT22;73746;47.466;8.992;2024-03-07T10:43:32;5.70;99.90
30678;DHT22;73746;47.466;8.992;2024-03-07T10:46:09;5.70;99.90
30678;DHT22;73746;47.466;8.992;2024-03-07T10:48:43;5.70;99.90
30678;DHT22;73746;47.466;8.992;2024-03-07T10:51:20;5.70;99.90
30678;DHT22;73746;47.466;8.992;2024-03-07T10:53:57;5.80;99.90
30678;DHT22;73746;47.466;8.992;2024-03-07T10:56:37;5.90;99.90
30678;DHT22;73746;47.466;8.992;2024-03-07T10:59:11;6.00;99.90
30678;DHT22;73746;47.466;8.992;2024-03-07T11:01:49;6.10;99.90
30678;DHT22;73746;47.466;8.992;2024-03-07T11:04:23;6.10;99.90
30678;DHT22;73746;47.466;8.992;2024-03-07T11:06:56;6.00;99.90
30678;DHT22;73746;47.466;8.992;2024-03-07T11:09:30;6.00;99.90
30678;DHT22;73746;47.466;8.992;2024-03-07T11:12:06;6.00;99.90
30678;DHT22;73746;47.466;8.992;2024-03-07T11:14:39;6.00;99.90
30678;DHT22;73746;47.466;8.992;2024-03-07T11:17:30;5.80;99.90
30678;DHT22;73746;47.466;8.992;2024-03-07T11:20:22;5.80;99.90
30678;DHT22;73746;47.466;8.992;2024-03-07T11:22:54;5.80;99.90
30678;DHT22;73746;47.466;8.992;2024-03-07T11:25:27;5.80;99.90
30678;DHT22;73746;47.466;8.992;2024-03-07T11:28:00;5.80;99.90
30678;DHT22;73746;47.466;8.992;2024-03-07T11:30:51;5.80;99.90
30678;DHT22;73746;47.466;8.992;2024-03-07T11:33:24;5.70;99.90
30678;DHT22;73746;47.466;8.992;2024-03-07T11:35:56;5.80;99.90
30678;DHT22;73746;47.466;8.992;2024-03-07T11:38:32;5.80;99.90
30678;DHT22;73746;47.466;8.992;2024-03-07T11:41:05;5.90;99.90
30678;DHT22;73746;47.466;8.992;2024-03-07T11:43:39;6.00;99.90
30678;DHT22;73746;47.466;8.992;2024-03-07T11:46:12;6.00;99.90
30678;DHT22;73746;47.466;8.992;2024-03-07T11:48:46;6.00;99.90
30678;DHT22;73746;47.466;8.992;2024-03-07T11:51:19;6.00;99.90
30678;DHT22;73746;47.466;8.992;2024-03-07T11:53:52;6.00;99.90
30678;DHT22;73746;47.466;8.992;2024-03-07T11:56:26;6.00;99.90
30678;DHT22;73746;47.466;8.992;2024-03-07T11:58:58;6.20;99.90
30678;DHT22;73746;47.466;8.992;2024-03-07T12:01:33;6.30;99.90
30678;DHT22;73746;47.466;8.992;2024-03-07T12:04:07;6.30;99.90
30678;DHT22;73746;47.466;8.992;2024-03-07T12:06:39;6.40;99.90
30678;DHT22;73746;47.466;8.992;2024-03-07T12:14:37;6.20;99.90
30678;DHT22;73746;47.466;8.992;2024-03-07T12:17:09;6.20;99.90
30678;DHT22;73746;47.466;8.992;2024-03-07T12:19:42;6.20;99.90
30678;DHT22;73746;47.466;8.992;2024-03-07T12:22:14;6.30;99.90
30678;DHT22;73746;47.466;8.992;2024-03-07T12:24:47;6.30;99.90
30678;DHT22;73746;47.466;8.992;2024-03-07T12:27:19;6.30;99.90
30678;DHT22;73746;47.466;8.992;2024-03-07T12:29:51;6.30;99.90
30678;DHT22;73746;47.466;8.992;2024-03-07T12:32:24;6.20;99.90
30678;DHT22;73746;47.466;8.992;2024-03-07T12:34:56;6.20;99.90
30678;DHT22;73746;47.466;8.992;2024-03-07T12:37:28;6.30;99.90
30678;DHT22;73746;47.466;8.992;2024-03-07T12:40:00;6.40;99.90
30678;DHT22;73746;47.466;8.992;2024-03-07T12:42:32;6.40;99.90
30678;DHT22;73746;47.466;8.992;2024-03-07T12:45:07;6.30;99.90
30678;DHT22;73746;47.466;8.992;2024-03-07T12:47:40;6.30;99.90
30678;DHT22;73746;47.466;8.992;2024-03-07T12:50:12;6.40;99.90
30678;DHT22;73746;47.466;8.992;2024-03-07T12:52:44;6.50;99.90
30678;DHT22;73746;47.466;8.992;2024-03-07T12:55:16;6.60;99.90
30678;DHT22;73746;47.466;8.992;2024-03-07T12:57:49;6.60;99.90
30678;DHT22;73746;47.466;8.992;2024-03-07T13:00:21;6.50;99.90
30678;DHT22;73746;47.466;8.992;2024-03-07T13:02:53;6.50;99.90
30678;DHT22;73746;47.466;8.992;2024-03-07T13:05:27;6.50;99.90
30678;DHT22;73746;47.466;8.992;2024-03-07T13:07:59;6.60;99.90
30678;DHT22;73746;47.466;8.992;2024-03-07T13:10:30;6.60;99.90
30678;DHT22;73746;47.466;8.992;2024-03-07T13:13:02;6.70;99.90
30678;DHT22;73746;47.466;8.992;2024-03-07T13:15:35;6.60;99.90
30678;DHT22;73746;47.466;8.992;2024-03-07T13:18:09;6.60;99.90
30678;DHT22;73746;47.466;8.992;2024-03-07T13:20:41;6.70;99.90
30678;DHT22;73746;47.466;8.992;2024-03-07T13:23:13;6.70;99.90
30678;DHT22;73746;47.466;8.992;2024-03-07T13:25:46;6.60;99.90
30678;DHT22;73746;47.466;8.992;2024-03-07T13:28:19;6.60;99.90
30678;DHT22;73746;47.466;8.992;2024-03-07T13:30:53;6.60;99.90
30678;DHT22;73746;47.466;8.992;2024-03-07T13:33:25;6.60;99.90
30678;DHT22;73746;47.466;8.992;2024-03-07T13:35:58;6.60;99.90
30678;DHT22;73746;47.466;8.992;2024-03-07T13:38:31;6.60;99.90
30678;DHT22;73746;47.466;8.992;2024-03-07T13:41:06;6.60;99.90
30678;DHT22;73746;47.466;8.992;2024-03-07T13:43:37;6.70;99.90
30678;DHT22;73746;47.466;8.992;2024-03-07T13:46:09;6.70;99.90
30678;DHT22;73746;47.466;8.992;2024-03-07T13:48:42;6.70;99.90
30678;DHT22;73746;47.466;8.992;2024-03-07T13:51:14;6.80;99.90
30678;DHT22;73746;47.466;8.992;2024-03-07T13:53:46;6.80;99.90
30678;DHT22;73746;47.466;8.992;2024-03-07T13:56:47;6.80;99.90
30678;DHT22;73746;47.466;8.992;2024-03-07T13:59:28;6.80;99.90
30678;DHT22;73746;47.466;8.992;2024-03-07T14:02:01;6.80;99.90
30678;DHT22;73746;47.466;8.992;2024-03-07T14:07:51;6.80;99.90
30678;DHT22;73746;47.466;8.992;2024-03-07T14:10:52;6.90;99.90
30678;DHT22;73746;47.466;8.992;2024-03-07T14:13:41;7.00;99.90
30678;DHT22;73746;47.466;8.992;2024-03-07T14:16:43;7.00;99.90
30678;DHT22;73746;47.466;8.992;2024-03-07T14:22:40;7.10;99.90
30678;DHT22;73746;47.466;8.992;2024-03-07T14:25:41;7.00;99.90
30678;DHT22;73746;47.466;8.992;2024-03-07T14:28:20;7.00;99.90
30678;DHT22;73746;47.466;8.992;2024-03-07T14:30:52;7.00;99.90
30678;DHT22;73746;47.466;8.992;2024-03-07T14:33:29;7.00;99.90
30678;DHT22;73746;47.466;8.992;2024-03-07T14:36:04;7.00;99.90
30678;DHT22;73746;47.466;8.992;2024-03-07T14:38:47;7.00;99.90
30678;DHT22;73746;47.466;8.992;2024-03-07T14:41:23;7.00;99.90
30678;DHT22;73746;47.466;8.992;2024-03-07T14:43:56;6.90;99.90
30678;DHT22;73746;47.466;8.992;2024-03-07T14:46:47;6.90;99.90
30678;DHT22;73746;47.466;8.992;2024-03-07T14:49:20;6.80;99.90
30678;DHT22;73746;47.466;8.992;2024-03-07T14:51:53;6.80;99.90
30678;DHT22;73746;47.466;8.992;2024-03-07T14:54:27;6.80;99.90
30678;DHT22;73746;47.466;8.992;2024-03-07T14:56:59;6.80;99.90
30678;DHT22;73746;47.466;8.992;2024-03-07T14:59:31;6.90;99.90
30678;DHT22;73746;47.466;8.992;2024-03-07T15:02:03;6.90;99.90
30678;DHT22;73746;47.466;8.992;2024-03-07T15:04:38;6.90;99.90
30678;DHT22;73746;47.466;8.992;2024-03-07T15:07:11;6.80;99.90
30678;DHT22;73746;47.466;8.992;2024-03-07T15:09:43;6.70;99.90
30678;DHT22;73746;47.466;8.992;2024-03-07T15:12:15;6.60;99.90
30678;DHT22;73746;47.466;8.992;2024-03-07T15:14:47;6.50;99.90
30678;DHT22;73746;47.466;8.992;2024-03-07T15:17:21;6.50;99.90
30678;DHT22;73746;47.466;8.992;2024-03-07T15:19:54;6.40;99.90
30678;DHT22;73746;47.466;8.992;2024-03-07T15:22:26;6.40;99.90
30678;DHT22;73746;47.466;8.992;2024-03-07T15:24:58;6.50;99.90
30678;DHT22;73746;47.466;8.992;2024-03-07T15:27:31;6.50;99.90
30678;DHT22;73746;47.466;8.992;2024-03-07T15:30:07;6.40;99.90
30678;DHT22;73746;47.466;8.992;2024-03-07T15:32:42;6.40;99.90
30678;DHT22;73746;47.466;8.992;2024-03-07T15:35:14;6.40;99.90
30678;DHT22;73746;47.466;8.992;2024-03-07T15:37:49;6.40;99.90
30678;DHT22;73746;47.466;8.992;2024-03-07T15:40:21;6.40;99.90
30678;DHT22;73746;47.466;8.992;2024-03-07T15:42:55;6.40;99.90
30678;DHT22;73746;47.466;8.992;2024-03-07T15:45:27;6.40;99.90
30678;DHT22;73746;47.466;8.992;2024-03-07T15:48:00;6.50;99.90
30678;DHT22;73746;47.466;8.992;2024-03-07T15:50:34;6.50;99.90
30678;DHT22;73746;47.466;8.992;2024-03-07T15:53:07;6.50;99.90
30678;DHT22;73746;47.466;8.992;2024-03-07T15:55:39;6.50;99.90
30678;DHT22;73746;47.466;8.992;2024-03-07T15:58:10;6.50;99.90
30678;DHT22;73746;47.466;8.992;2024-03-07T16:00:42;6.40;99.90
30678;DHT22;73746;47.466;8.992;2024-03-07T16:03:15;6.40;99.90
30678;DHT22;73746;47.466;8.992;2024-03-07T16:05:47;6.40;99.90
30678;DHT22;73746;47.466;8.992;2024-03-07T16:08:19;6.40;99.90
30678;DHT22;73746;47.466;8.992;2024-03-07T16:10:52;6.50;99.90
30678;DHT22;73746;47.466;8.992;2024-03-07T16:13:23;6.50;99.90
30678;DHT22;73746;47.466;8.992;2024-03-07T16:15:55;6.50;99.90
30678;DHT22;73746;47.466;8.992;2024-03-07T16:18:27;6.50;99.90
30678;DHT22;73746;47.466;8.992;2024-03-07T16:20:59;6.40;99.90
30678;DHT22;73746;47.466;8.992;2024-03-07T16:23:30;6.40;99.90
30678;DHT22;73746;47.466;8.992;2024-03-07T16:26:03;6.30;99.90
30678;DHT22;73746;47.466;8.992;2024-03-07T16:28:34;6.30;99.90
30678;DHT22;73746;47.466;8.992;2024-03-07T16:31:06;6.30;99.90
30678;DHT22;73746;47.466;8.992;2024-03-07T16:33:39;6.20;99.90
30678;DHT22;73746;47.466;8.992;2024-03-07T16:36:11;6.20;99.90
30678;DHT22;73746;47.466;8.992;2024-03-07T16:38:45;6.10;99.90
30678;DHT22;73746;47.466;8.992;2024-03-07T16:41:17;6.10;99.90
30678;DHT22;73746;47.466;8.992;2024-03-07T16:43:50;6.00;99.90
30678;DHT22;73746;47.466;8.992;2024-03-07T16:46:21;6.00;99.90
30678;DHT22;73746;47.466;8.992;2024-03-07T16:48:53;5.90;99.90
30678;DHT22;73746;47.466;8.992;2024-03-07T16:51:25;6.00;99.90
30678;DHT22;73746;47.466;8.992;2024-03-07T16:53:57;5.90;99.90
30678;DHT22;73746;47.466;8.992;2024-03-07T16:56:29;5.90;99.90
30678;DHT22;73746;47.466;8.992;2024-03-07T16:59:01;5.90;99.90
30678;DHT22;73746;47.466;8.992;2024-03-07T17:01:34;5.90;99.90